Terminal Aerodrome Forecast
Issued by NWS

Home | Current Version | Previous Version | Text Only | Print | Product List | Glossary On
Versions: 1 2 3 4 5 6 7 8 9 10 11 12 13 14 15 16 17
576
FTUS43 KICT 171740
TAFSLN
TAF
KSLN 171740Z 1718/1818 22017KT P6SM BKN300
     FM172300 31005KT P6SM SKC
     FM180400 36013KT P6SM SCT025
     FM180600 34022G26KT P6SM OVC022
     FM181000 34025G35KT P6SM OVC018=

USA.gov is the U.S. government's official web portal to all federal, state and local government web resources and services.